• Join FlightAware (Why Join?)
  • Login
  • US Flag 
02:06AM EDT


 

Airport Tracker/Info


-or-


 

Live Flight TrackerFlight Track Log ✈ DAL1937 ✈ 22-May-2013 ✈ KBWI - KDTW

Flight Track Log - Related Links

Times and Time Zones

All times are in EDT time to prevent confusion due to time zone crossing. See the DAL1937 flight status page for this flight to view local times or setup timezone preferences in your user account.

Time Position Orientation Groundspeed Altitude Reporting Facility
EDT Latitude Longitude Course Direction KTS MPH feet Rate Location/Type
06:15AM 39.1833 -76.7167 290° West 167 192 1,800  Level Potomac TRACON
06:15AM 39.1833 -76.8000 270° West 246 283 2,900 2,460 Climbing Potomac TRACON
06:16AM 39.2000 -76.8833 284° West 266 306 6,300 3,240 Climbing Potomac TRACON
06:17AM 39.2000 -77.0757 270° West  Level FlightAware Approximate
06:17AM 39.2167 -76.9833 282° West 276 318 9,400  Level Potomac TRACON
06:18AM 39.2451 -77.1784 322° Northwest  Level FlightAware Approximate
06:18AM 39.2167 -77.0833 270° West 308 354 11,400  Level Potomac TRACON
06:19AM 39.3306 -77.2639 322° Northwest  Level FlightAware Approximate
06:20AM 39.3863 -77.3769 290° West  Level FlightAware Approximate
06:20AM 39.3061 -77.2572 304° West 363 418 15,100  Level Washington Center
06:21AM 39.3608 -77.3739 301° West 374 430 17,300 2,040 Climbing Washington Center
06:22AM 39.4153 -77.4989 299° West 385 443 19,200 2,040 Climbing Washington Center
06:23AM 39.4672 -77.6292 297° West 402 463 21,400 1,740 Climbing Washington Center
06:25AM 39.5564 -77.9147 292° West 417 480 24,300 1,500 Climbing Cleveland Center
06:26AM 39.6014 -78.0639 291° West 435 501 25,700 4,800 Climbing Cleveland Center
06:27AM 39.6464 -78.2133 291° West 446 513 34,000 1,140 Climbing Cleveland Center
06:28AM 39.6911 -78.3681 291° West 446 513 28,000 -2,340 Descending Cleveland Center
06:29AM 39.7358 -78.5233 291° West 456 525 29,400 1,140 Climbing Cleveland Center
06:30AM 39.7733 -78.6464 292° West 456 525 30,300 1,260 Climbing Cleveland Center
06:31AM 39.8178 -78.8128 289° West 461 531 32,000 1,560 Climbing Cleveland Center
06:32AM 39.8619 -78.9683 290° West 461 531 33,400 960 Climbing Cleveland Center
06:33AM 39.9078 -79.1189 292° West 461 531 34,000 240 Climbing Cleveland Center
06:34AM 39.9492 -79.2617 291° West 449 517 34,000  Level Cleveland Center
06:35AM 39.9986 -79.4069 294° West 444 511 34,000 -120 Level Cleveland Center
06:36AM 40.0667 -79.5386 304° West 439 505 33,800 -600 Descending Cleveland Center
06:37AM 40.1344 -79.6706 304° West 439 505 32,900 -960 Descending Cleveland Center
06:38AM 40.2042 -79.8056 304° West 444 511 31,900 -1,020 Descending Cleveland Center
06:39AM 40.2739 -79.9408 304° West 444 511 30,900 -960 Descending Cleveland Center
06:40AM 40.3456 -80.0928 302° West 444 511 30,000 -480 Descending Cleveland Center
06:41AM 40.4147 -80.2286 304° West 451 519 30,000  Level Cleveland Center
06:42AM 40.4858 -80.3619 305° West 451 519 30,000  Level Cleveland Center
06:43AM 40.5528 -80.4956 303° West 451 519 30,000  Level Cleveland Center
06:44AM 40.6194 -80.6322 303° West 451 519 30,000  Level Cleveland Center
06:45AM 40.6883 -80.7692 304° West 450 518 30,000  Level Cleveland Center
06:46AM 40.7589 -80.9039 305° West 450 518 30,000 -240 Level Cleveland Center
06:47AM 40.8292 -81.0386 305° West 455 524 29,600 -720 Descending Cleveland Center
06:48AM 40.9017 -81.1736 305° West 455 524 28,600 -840 Descending Cleveland Center
06:49AM 40.9694 -81.3092 304° West 449 517 28,000 -300 Descending Cleveland Center
06:50AM 41.0314 -81.4281 305° West 444 511 28,000  Level Cleveland Center
06:51AM 41.1011 -81.5642 304° West 444 511 28,000  Level Cleveland Center
06:52AM 41.1831 -81.7086 307° West 449 517 28,000 -420 Level Cleveland Center
06:53AM 41.2506 -81.8369 305° West 444 511 27,200 -900 Descending Cleveland Center
06:54AM 41.3178 -81.9683 304° West 439 505 26,200 -1,020 Descending Cleveland Center
06:55AM 41.3828 -82.0997 303° West 433 498 25,200 -1,440 Descending Cleveland Center
06:56AM 41.4497 -82.2369 303° West 433 498 23,400 -2,520 Descending Cleveland Center
06:57AM 41.5228 -82.3775 305° West 454 522 20,200 -3,420 Descending Cleveland Center
06:58AM 41.5914 -82.5128 304° West 452 520 16,600 -3,180 Descending Cleveland Center
06:59AM 41.6497 -82.6283 304° West 443 510 13,900 -2,160 Descending Cleveland Center
07:00AM 41.7100 -82.7556 302° West 423 487 12,300 -1,020 Descending Cleveland Center
07:01AM 41.7914 -82.8642 315° West 416 479 11,900 -240 Descending Cleveland Center
07:02AM 41.8639 -82.9811 310° West 409 471 11,900  Level Cleveland Center
07:03AM 41.9133 -83.1083 298° West 402 463 12,000  Climbing Cleveland Center
07:04AM 41.9608 -83.2192 300° West 372 428 11,900 -60 Descending Cleveland Center
07:05AM 42.0189 -83.3222 307° West 349 402 11,900 -120 Level Cleveland Center
07:06AM 42.0917 -83.4233 314° West 349 402 11,700 -420 Descending Cleveland Center
07:07AM 42.1900 -83.4894 334° Northwest 294 338 11,000 -600 Descending Cleveland Center
07:08AM 42.2669 -83.4931 358° North 266 306 10,500 -840 Descending Cleveland Center
07:09AM 42.3344 -83.4622 19° North 267 307 9,300 -1,080 Descending Cleveland Center
07:10AM 42.3981 -83.4203 26° Northeast 246 283 8,400 -1,080 Descending Cleveland Center
07:11AM 42.4578 -83.3694 32° Northeast 231 266 7,200 -1,320 Descending Cleveland Center
07:12AM 42.4325 -83.2894 113° Southeast 194 223 5,700 -1,440 Descending Cleveland Center
07:13AM 42.3825 -83.2903 181° South 182 209 4,200 -1,380 Descending Cleveland Center
07:15AM 42.3322 -83.2992 187° South 184 212 2,900 -1,320 Descending Cleveland Center